Time;durP1;ratioP1;P1;durP2;ratioP2;P2;SDS_P1;SDS_P2;PMS_P1;PMS_P2;Temp;Humidity;BMP_temperature;BMP_pressure;BME280_temperature;BME280_humidity;BME280_pressure;Samples;Min_cycle;Max_cycle;Signal;HPM_P1;HPM_P2
2022/05/03 00:00:58;;;;;;;7.50;6.50;;;;;;;;;;10460414;28;20407;-81
2022/05/03 00:06:06;;;;;;;7.50;6.70;;;;;;;;;;10463311;28;20937;-80
2022/05/03 00:11:11;;;;;;;7.53;6.50;;;;;;;;;;10464084;28;20429;-81
2022/05/03 00:16:17;;;;;;;7.03;6.28;;;;;;;;;;10464176;28;20885;-80
2022/05/03 00:21:18;;;;;;;7.40;6.40;;;;;;;;;;10463959;28;20428;-80
2022/05/03 00:26:21;;;;;;;7.50;6.70;;;;;;;;;;10463590;28;20403;-81
2022/05/03 00:31:25;;;;;;;6.63;6.03;;;;;;;;;;10463649;28;20455;-81
2022/05/03 00:36:27;;;;;;;6.90;5.90;;;;;;;;;;10463206;28;20418;-80
2022/05/03 00:41:48;;;;;;;7.53;6.78;;;;;;;;;;10463737;28;20461;-81
2022/05/03 00:46:53;;;;;;;7.97;6.75;;;;;;;;;;10462636;28;20405;-81
2022/05/03 00:52:03;;;;;;;9.55;6.68;;;;;;;;;;10461842;28;20455;-81
2022/05/03 00:57:18;;;;;;;7.45;6.72;;;;;;;;;;10462794;28;20413;-82
2022/05/03 01:02:30;;;;;;;7.75;7.00;;;;;;;;;;10462788;28;20402;-81
2022/05/03 01:07:35;;;;;;;9.97;6.83;;;;;;;;;;10462025;28;20406;-81
2022/05/03 01:12:53;;;;;;;8.40;6.95;;;;;;;;;;10461810;28;20828;-81
2022/05/03 01:18:15;;;;;;;7.55;6.75;;;;;;;;;;10461674;28;20466;-80
2022/05/03 01:23:46;;;;;;;7.53;6.75;;;;;;;;;;10462639;28;20394;-81
2022/05/03 01:29:01;;;;;;;7.18;6.45;;;;;;;;;;10461726;28;20418;-82
2022/05/03 01:34:03;;;;;;;7.10;6.40;;;;;;;;;;10462395;28;20428;-81
2022/05/03 01:39:15;;;;;;;7.03;6.27;;;;;;;;;;10461947;28;20431;-82
2022/05/03 01:44:33;;;;;;;7.40;6.60;;;;;;;;;;10462257;28;20407;-80
2022/05/03 01:55:40;;;;;;;6.60;5.90;;;;;;;;;;10461531;28;20383;-80
2022/05/03 02:00:52;;;;;;;6.55;5.75;;;;;;;;;;10455689;28;20494;-81
2022/05/03 02:06:00;;;;;;;6.47;5.75;;;;;;;;;;10461273;28;20489;-80
2022/05/03 02:11:25;;;;;;;6.93;6.23;;;;;;;;;;10461777;28;20414;-80
2022/05/03 02:16:31;;;;;;;7.78;6.07;;;;;;;;;;10461259;28;20408;-81
2022/05/03 02:21:42;;;;;;;6.40;5.73;;;;;;;;;;10461359;28;20401;-81
2022/05/03 02:26:50;;;;;;;6.17;5.57;;;;;;;;;;10463141;28;20411;-81
2022/05/03 02:32:03;;;;;;;7.63;5.73;;;;;;;;;;10468750;28;21206;-80
2022/05/03 02:37:13;;;;;;;7.43;5.60;;;;;;;;;;10468787;28;20481;-80
2022/05/03 02:42:15;;;;;;;5.68;5.18;;;;;;;;;;10468233;28;20412;-79
2022/05/03 02:47:35;;;;;;;6.20;5.60;;;;;;;;;;10468067;28;20407;-79
2022/05/03 02:52:43;;;;;;;7.43;5.78;;;;;;;;;;10468468;28;20895;-80
2022/05/03 02:58:00;;;;;;;6.10;5.50;;;;;;;;;;10466897;28;20820;-81
2022/05/03 03:03:25;;;;;;;6.32;5.20;;;;;;;;;;10466628;28;20753;-80
2022/05/03 03:08:29;;;;;;;6.10;5.50;;;;;;;;;;10463833;28;20474;-80
2022/05/03 03:13:49;;;;;;;9.20;6.60;;;;;;;;;;10466841;28;20415;-80
2022/05/03 03:18:53;;;;;;;7.47;6.73;;;;;;;;;;10466286;28;20420;-80
2022/05/03 03:23:57;;;;;;;7.72;6.88;;;;;;;;;;10466177;28;20485;-80
2022/05/03 03:29:00;;;;;;;8.25;7.45;;;;;;;;;;10466910;28;20410;-81
2022/05/03 03:34:05;;;;;;;8.47;7.13;;;;;;;;;;10466653;28;20402;-81
2022/05/03 03:39:07;;;;;;;8.18;6.93;;;;;;;;;;10464698;28;20398;-80
2022/05/03 03:44:09;;;;;;;7.55;6.85;;;;;;;;;;10465446;28;20834;-80
2022/05/03 03:49:12;;;;;;;7.45;6.70;;;;;;;;;;10465718;28;20913;-81
2022/05/03 03:54:14;;;;;;;8.53;7.23;;;;;;;;;;10465980;28;20478;-79
2022/05/03 03:59:17;;;;;;;8.20;7.40;;;;;;;;;;10465265;28;20407;-79
2022/05/03 04:04:27;;;;;;;8.52;7.22;;;;;;;;;;10464552;28;20488;-80
2022/05/03 04:09:29;;;;;;;8.70;7.20;;;;;;;;;;10459541;28;20414;-80
2022/05/03 04:14:32;;;;;;;9.20;7.47;;;;;;;;;;10461297;28;20518;-80
2022/05/03 04:19:36;;;;;;;9.83;7.30;;;;;;;;;;10463964;28;20396;-80
2022/05/03 04:24:38;;;;;;;8.93;7.40;;;;;;;;;;10466100;28;20411;-80
2022/05/03 04:29:39;;;;;;;11.45;7.75;;;;;;;;;;10483318;28;20432;-80
2022/05/03 04:34:43;;;;;;;9.60;7.28;;;;;;;;;;10477166;28;20402;-80
2022/05/03 04:39:45;;;;;;;8.10;7.20;;;;;;;;;;10477328;28;20452;-80
2022/05/03 04:44:47;;;;;;;8.82;7.93;;;;;;;;;;10477472;28;20476;-80
2022/05/03 04:49:50;;;;;;;7.95;7.15;;;;;;;;;;10481521;28;20496;-80
2022/05/03 04:54:52;;;;;;;8.70;7.80;;;;;;;;;;10473276;28;20405;-80
2022/05/03 04:59:53;;;;;;;8.98;7.65;;;;;;;;;;10465497;28;20400;-80
2022/05/03 05:04:56;;;;;;;9.50;7.37;;;;;;;;;;10470886;28;20439;-80
2022/05/03 05:15:18;;;;;;;9.50;7.20;;;;;;;;;;10465932;28;20379;-81
2022/05/03 05:20:22;;;;;;;9.07;6.90;;;;;;;;;;10457557;28;20398;-79
2022/05/03 05:25:24;;;;;;;8.32;6.63;;;;;;;;;;10461295;28;20398;-81
2022/05/03 05:30:26;;;;;;;8.65;6.57;;;;;;;;;;10460237;28;20428;-80
2022/05/03 05:35:29;;;;;;;7.60;6.38;;;;;;;;;;10452243;28;20463;-79
2022/05/03 05:40:32;;;;;;;8.68;6.50;;;;;;;;;;10447756;28;20416;-82
2022/05/03 05:45:34;;;;;;;7.17;6.13;;;;;;;;;;10451608;28;20433;-79
2022/05/03 05:50:38;;;;;;;11.07;6.88;;;;;;;;;;10443203;28;20790;-79
2022/05/03 05:55:42;;;;;;;8.37;6.50;;;;;;;;;;10459138;28;20414;-79
2022/05/03 06:00:44;;;;;;;8.10;6.50;;;;;;;;;;10461190;28;20417;-79
2022/05/03 06:05:47;;;;;;;10.25;7.20;;;;;;;;;;10466216;28;20417;-79
2022/05/03 06:10:50;;;;;;;9.10;6.83;;;;;;;;;;10471137;28;20514;-80
2022/05/03 06:15:53;;;;;;;8.57;6.68;;;;;;;;;;10467799;28;20414;-77
2022/05/03 06:20:57;;;;;;;9.68;6.95;;;;;;;;;;10468576;28;20894;-78
2022/05/03 06:25:59;;;;;;;13.15;6.80;;;;;;;;;;10469043;28;20463;-79
2022/05/03 06:31:01;;;;;;;7.95;7.05;;;;;;;;;;10466533;28;20889;-78
2022/05/03 06:36:05;;;;;;;8.63;6.85;;;;;;;;;;10467411;28;20605;-79
2022/05/03 06:41:08;;;;;;;7.10;6.40;;;;;;;;;;10467278;28;20493;-79
2022/05/03 06:46:10;;;;;;;8.00;6.53;;;;;;;;;;10467035;28;20407;-77
2022/05/03 06:51:13;;;;;;;7.80;6.22;;;;;;;;;;10470347;28;20425;-78
2022/05/03 06:56:15;;;;;;;8.77;6.47;;;;;;;;;;10466478;28;20398;-79
2022/05/03 07:01:17;;;;;;;7.30;6.40;;;;;;;;;;10467092;28;20426;-79
2022/05/03 07:06:21;;;;;;;8.50;6.13;;;;;;;;;;10466224;28;20402;-79
2022/05/03 07:11:23;;;;;;;9.55;5.45;;;;;;;;;;10466038;28;21246;-78
2022/05/03 07:16:24;;;;;;;6.88;6.00;;;;;;;;;;10463880;28;20410;-78
2022/05/03 07:26:48;;;;;;;8.02;5.85;;;;;;;;;;10465894;28;20762;-78
2022/05/03 07:31:51;;;;;;;7.50;5.73;;;;;;;;;;10465144;28;20520;-78
2022/05/03 07:36:54;;;;;;;7.05;5.50;;;;;;;;;;10467865;28;20477;-78
2022/05/03 07:41:56;;;;;;;7.83;5.50;;;;;;;;;;10463005;28;21018;-79
2022/05/03 07:46:58;;;;;;;8.00;4.70;;;;;;;;;;10469053;28;20489;-79
2022/05/03 07:52:02;;;;;;;8.67;5.27;;;;;;;;;;10470255;28;20804;-78
2022/05/03 07:57:06;;;;;;;7.00;4.80;;;;;;;;;;10460651;28;20402;-80
2022/05/03 08:02:12;;;;;;;6.88;4.35;;;;;;;;;;10465034;28;20407;-81
2022/05/03 08:07:15;;;;;;;5.50;4.57;;;;;;;;;;10463227;28;20416;-79
2022/05/03 08:12:17;;;;;;;8.50;4.78;;;;;;;;;;10477567;28;20417;-79
2022/05/03 08:17:19;;;;;;;5.85;4.10;;;;;;;;;;10457026;28;20799;-80
2022/05/03 08:22:22;;;;;;;3.87;3.20;;;;;;;;;;10475562;28;20402;-80
2022/05/03 08:27:24;;;;;;;3.90;2.88;;;;;;;;;;10476227;28;20420;-79
2022/05/03 08:32:26;;;;;;;4.15;3.55;;;;;;;;;;10474333;28;20421;-80
2022/05/03 08:42:48;;;;;;;4.32;3.40;;;;;;;;;;10477819;28;20406;-80
2022/05/03 08:47:50;;;;;;;6.30;3.15;;;;;;;;;;10476220;28;20405;-80
2022/05/03 08:52:55;;;;;;;4.43;3.30;;;;;;;;;;10477614;28;20426;-80
2022/05/03 08:57:57;;;;;;;5.30;3.30;;;;;;;;;;10467515;28;20439;-80
2022/05/03 09:02:59;;;;;;;6.90;3.20;;;;;;;;;;10466770;28;20408;-79
2022/05/03 09:08:04;;;;;;;3.10;2.80;;;;;;;;;;10462330;28;20411;-80
2022/05/03 09:13:18;;;;;;;3.53;2.83;;;;;;;;;;10470789;28;20425;-79
2022/05/03 09:18:24;;;;;;;4.78;3.60;;;;;;;;;;10473617;28;20409;-79
2022/05/03 09:28:49;;;;;;;3.55;3.05;;;;;;;;;;10472531;28;20398;-80
2022/05/03 09:33:50;;;;;;;7.30;3.42;;;;;;;;;;10463676;28;20421;-80
2022/05/03 09:38:55;;;;;;;5.82;3.22;;;;;;;;;;10462698;28;20494;-80
2022/05/03 09:44:05;;;;;;;4.17;3.17;;;;;;;;;;10454411;28;20975;-80
2022/05/03 09:49:07;;;;;;;3.40;3.07;;;;;;;;;;10453622;28;20412;-80
2022/05/03 09:54:11;;;;;;;3.57;2.77;;;;;;;;;;10457093;28;20787;-80
2022/05/03 09:59:14;;;;;;;4.83;3.10;;;;;;;;;;10464806;28;20502;-79
2022/05/03 10:04:16;;;;;;;4.95;3.15;;;;;;;;;;10460941;28;20407;-80
2022/05/03 10:09:21;;;;;;;4.22;3.50;;;;;;;;;;10470439;28;20424;-80
2022/05/03 10:14:23;;;;;;;3.73;3.00;;;;;;;;;;10465354;28;20418;-80
2022/05/03 10:24:56;;;;;;;3.60;3.25;;;;;;;;;;10464037;28;20395;-80
2022/05/03 10:30:20;;;;;;;5.00;3.40;;;;;;;;;;10452770;28;20424;-80
2022/05/03 10:35:34;;;;;;;10.13;4.70;;;;;;;;;;10453470;28;20583;-81
2022/05/03 10:40:42;;;;;;;4.88;3.63;;;;;;;;;;10456306;28;20410;-80
2022/05/03 10:45:52;;;;;;;4.90;4.00;;;;;;;;;;10471268;28;20402;-80
2022/05/03 10:50:58;;;;;;;3.70;3.10;;;;;;;;;;10468735;28;20427;-80
2022/05/03 10:56:17;;;;;;;4.88;3.17;;;;;;;;;;10474650;28;20409;-81
2022/05/03 11:01:20;;;;;;;4.65;3.40;;;;;;;;;;10480041;28;20735;-80
2022/05/03 11:06:39;;;;;;;7.30;3.60;;;;;;;;;;10469726;28;20410;-82
2022/05/03 11:12:00;;;;;;;4.13;3.15;;;;;;;;;;10465878;28;20597;-81
2022/05/03 11:17:08;;;;;;;3.30;3.00;;;;;;;;;;10453510;28;20893;-81
2022/05/03 11:22:11;;;;;;;3.95;2.70;;;;;;;;;;10451878;28;20447;-80
2022/05/03 11:27:15;;;;;;;2.90;2.40;;;;;;;;;;10466653;28;20481;-80
2022/05/03 11:32:26;;;;;;;3.97;2.70;;;;;;;;;;10457783;28;20936;-80
2022/05/03 11:37:28;;;;;;;2.72;2.40;;;;;;;;;;10462843;28;20554;-80
2022/05/03 11:42:37;;;;;;;3.10;2.80;;;;;;;;;;10464068;28;20414;-80
2022/05/03 11:47:41;;;;;;;3.63;2.60;;;;;;;;;;10455129;28;20475;-79
2022/05/03 11:58:04;;;;;;;3.20;2.77;;;;;;;;;;10470487;28;20402;-79
2022/05/03 12:03:06;;;;;;;3.72;2.47;;;;;;;;;;10460019;28;20408;-80
2022/05/03 12:08:19;;;;;;;3.05;2.28;;;;;;;;;;10458848;28;20765;-80
2022/05/03 12:13:29;;;;;;;4.07;2.58;;;;;;;;;;10461700;28;20427;-80
2022/05/03 12:18:33;;;;;;;3.42;2.70;;;;;;;;;;10473173;28;20403;-80
2022/05/03 12:23:41;;;;;;;3.30;2.50;;;;;;;;;;10451746;28;20502;-79
2022/05/03 12:28:46;;;;;;;2.70;2.50;;;;;;;;;;10453662;28;20495;-79
2022/05/03 12:33:52;;;;;;;4.30;2.75;;;;;;;;;;10450302;28;20429;-80
2022/05/03 12:38:53;;;;;;;2.78;2.55;;;;;;;;;;10448012;28;20811;-80
2022/05/03 12:44:04;;;;;;;3.63;2.53;;;;;;;;;;10454164;28;20489;-80
2022/05/03 12:49:11;;;;;;;3.25;2.95;;;;;;;;;;10449127;28;20420;-80
2022/05/03 12:54:13;;;;;;;4.78;2.60;;;;;;;;;;10444741;28;20432;-81
2022/05/03 12:59:16;;;;;;;4.50;2.60;;;;;;;;;;10450218;28;20394;-80
2022/05/03 13:04:19;;;;;;;3.67;2.50;;;;;;;;;;10444822;28;20889;-79
2022/05/03 13:09:21;;;;;;;2.88;2.60;;;;;;;;;;10446341;28;20408;-81
2022/05/03 13:14:26;;;;;;;2.88;2.55;;;;;;;;;;10449277;28;20938;-81
2022/05/03 13:19:28;;;;;;;5.00;2.67;;;;;;;;;;10467401;28;20836;-79
2022/05/03 13:24:30;;;;;;;3.80;2.83;;;;;;;;;;10459273;28;20404;-79
2022/05/03 13:29:33;;;;;;;7.05;2.75;;;;;;;;;;10461737;28;20412;-80
2022/05/03 13:34:35;;;;;;;3.75;2.92;;;;;;;;;;10461918;28;20428;-80
2022/05/03 13:44:58;;;;;;;3.40;3.10;;;;;;;;;;10462147;28;20388;-79
2022/05/03 13:49:59;;;;;;;3.90;2.80;;;;;;;;;;10459706;28;20963;-79
2022/05/03 13:55:01;;;;;;;5.18;3.38;;;;;;;;;;10465332;28;20501;-80
2022/05/03 14:00:10;;;;;;;5.60;3.40;;;;;;;;;;10459259;28;20488;-79
2022/05/03 14:05:12;;;;;;;3.92;3.13;;;;;;;;;;10459485;28;20886;-79
2022/05/03 14:10:14;;;;;;;4.00;3.60;;;;;;;;;;10460316;28;20657;-80
2022/05/03 14:15:17;;;;;;;5.83;3.13;;;;;;;;;;10456460;28;20880;-80
2022/05/03 14:20:19;;;;;;;4.85;3.20;;;;;;;;;;10452525;28;20401;-80
2022/05/03 14:25:23;;;;;;;5.63;3.20;;;;;;;;;;10466247;28;20410;-80
2022/05/03 14:30:26;;;;;;;3.80;3.33;;;;;;;;;;10462775;28;20415;-80
2022/05/03 14:35:28;;;;;;;3.92;3.13;;;;;;;;;;10460984;28;20435;-79
2022/05/03 14:40:29;;;;;;;2.60;2.37;;;;;;;;;;10463950;28;20399;-80
2022/05/03 14:45:34;;;;;;;2.85;2.55;;;;;;;;;;10467680;28;20407;-80
2022/05/03 14:50:36;;;;;;;3.10;2.80;;;;;;;;;;10469448;28;20418;-80
2022/05/03 14:55:39;;;;;;;2.60;2.40;;;;;;;;;;10475801;28;20422;-79
2022/05/03 15:06:02;;;;;;;3.17;2.50;;;;;;;;;;10464739;28;20826;-79
2022/05/03 15:11:04;;;;;;;2.60;2.40;;;;;;;;;;10462762;28;20412;-79
2022/05/03 15:16:08;;;;;;;3.10;2.50;;;;;;;;;;10463187;28;20414;-80
2022/05/03 15:21:09;;;;;;;3.90;2.55;;;;;;;;;;10467013;28;20422;-80
2022/05/03 15:26:12;;;;;;;2.60;2.40;;;;;;;;;;10461727;28;20520;-81
2022/05/03 15:31:16;;;;;;;3.00;2.00;;;;;;;;;;10467476;28;20436;-80
2022/05/03 15:36:18;;;;;;;3.90;2.57;;;;;;;;;;10460781;28;20434;-80
2022/05/03 15:41:22;;;;;;;4.18;2.35;;;;;;;;;;10460613;28;20914;-80
2022/05/03 15:46:25;;;;;;;5.25;2.70;;;;;;;;;;10461790;28;20420;-81
2022/05/03 15:51:27;;;;;;;2.58;2.10;;;;;;;;;;10464946;28;20423;-80
2022/05/03 15:56:28;;;;;;;2.40;2.20;;;;;;;;;;10460710;28;20446;-80
2022/05/03 16:01:32;;;;;;;3.72;2.40;;;;;;;;;;10463192;28;20414;-80
2022/05/03 16:06:33;;;;;;;2.73;2.47;;;;;;;;;;10459924;28;20940;-79
2022/05/03 16:11:36;;;;;;;9.52;2.47;;;;;;;;;;10459868;28;20411;-80
2022/05/03 16:16:39;;;;;;;2.50;2.10;;;;;;;;;;10462871;28;20402;-80
2022/05/03 16:21:41;;;;;;;3.40;2.50;;;;;;;;;;10473211;28;20432;-79
2022/05/03 16:26:46;;;;;;;3.38;2.45;;;;;;;;;;10464246;28;21032;-79
2022/05/03 16:31:49;;;;;;;3.95;2.20;;;;;;;;;;10448935;28;20419;-79
2022/05/03 16:42:12;;;;;;;3.20;2.20;;;;;;;;;;10461181;28;20407;-80
2022/05/03 16:47:17;;;;;;;4.40;2.20;;;;;;;;;;10457909;28;20450;-79
2022/05/03 16:52:21;;;;;;;3.00;2.30;;;;;;;;;;10455874;28;20501;-78
2022/05/03 16:57:23;;;;;;;4.88;2.38;;;;;;;;;;10456242;28;20574;-81
2022/05/03 17:02:26;;;;;;;3.50;2.27;;;;;;;;;;10456266;28;20521;-79
2022/05/03 17:07:28;;;;;;;2.60;2.20;;;;;;;;;;10456907;28;20429;-79
2022/05/03 17:12:30;;;;;;;3.40;2.10;;;;;;;;;;10458142;28;20409;-80
2022/05/03 17:17:34;;;;;;;3.50;2.60;;;;;;;;;;10453341;28;20419;-79
2022/05/03 17:22:35;;;;;;;2.20;2.00;;;;;;;;;;10458818;28;20428;-79
2022/05/03 17:27:38;;;;;;;2.70;2.10;;;;;;;;;;10450035;28;20421;-80
2022/05/03 17:32:41;;;;;;;3.63;2.20;;;;;;;;;;10452217;28;20419;-78
2022/05/03 17:37:43;;;;;;;3.03;2.30;;;;;;;;;;10456404;28;20424;-78
2022/05/03 17:42:47;;;;;;;5.13;2.30;;;;;;;;;;10457830;28;20421;-80
2022/05/03 17:47:50;;;;;;;3.80;2.40;;;;;;;;;;10456574;28;20424;-79
2022/05/03 17:58:12;;;;;;;2.97;2.15;;;;;;;;;;10455687;28;20410;-80
2022/05/03 18:03:15;;;;;;;4.00;2.38;;;;;;;;;;10464910;28;20413;-80
2022/05/03 18:08:16;;;;;;;5.20;2.70;;;;;;;;;;10457435;28;20414;-81
2022/05/03 18:13:18;;;;;;;6.40;2.70;;;;;;;;;;10458315;28;20413;-79
2022/05/03 18:18:21;;;;;;;3.50;2.80;;;;;;;;;;10460391;28;20401;-79
2022/05/03 18:23:23;;;;;;;5.40;3.07;;;;;;;;;;10451129;28;20426;-78
2022/05/03 18:28:25;;;;;;;6.57;3.30;;;;;;;;;;10453008;28;20592;-79
2022/05/03 18:33:29;;;;;;;5.18;3.10;;;;;;;;;;10453694;28;20408;-80
2022/05/03 18:38:30;;;;;;;5.10;3.30;;;;;;;;;;10454211;28;20403;-80
2022/05/03 18:43:32;;;;;;;5.45;3.40;;;;;;;;;;10451023;28;20861;-80
2022/05/03 18:48:35;;;;;;;5.93;3.30;;;;;;;;;;10457295;28;20415;-80
2022/05/03 18:53:37;;;;;;;5.30;3.40;;;;;;;;;;10448938;28;20426;-79
2022/05/03 18:58:39;;;;;;;9.83;3.40;;;;;;;;;;10446709;28;20422;-80
2022/05/03 19:03:42;;;;;;;6.10;3.70;;;;;;;;;;10445334;28;20512;-80
2022/05/03 19:08:44;;;;;;;3.40;3.05;;;;;;;;;;10448524;28;20416;-80
2022/05/03 19:13:46;;;;;;;5.85;3.75;;;;;;;;;;10455448;28;20402;-81
2022/05/03 19:18:49;;;;;;;9.97;3.83;;;;;;;;;;10464193;28;20408;-81
2022/05/03 19:34:27;;;;;;;4.65;3.28;;;;;;;;;;10459654;28;20422;-79
2022/05/03 19:39:29;;;;;;;6.60;3.30;;;;;;;;;;10464026;28;20480;-80
2022/05/03 19:44:32;;;;;;;6.05;3.58;;;;;;;;;;10462884;28;20418;-80
2022/05/03 19:49:35;;;;;;;5.72;3.85;;;;;;;;;;10453988;28;20487;-80
2022/05/03 19:54:37;;;;;;;5.47;4.43;;;;;;;;;;10458874;28;20410;-79
2022/05/03 19:59:39;;;;;;;7.95;4.82;;;;;;;;;;10461555;28;20404;-80
2022/05/03 20:04:42;;;;;;;12.02;4.97;;;;;;;;;;10460227;28;20426;-80
2022/05/03 20:09:44;;;;;;;9.10;5.45;;;;;;;;;;10463138;28;20407;-80
2022/05/03 20:14:46;;;;;;;8.77;5.35;;;;;;;;;;10468593;28;20426;-79
2022/05/03 20:19:50;;;;;;;8.43;5.20;;;;;;;;;;10460627;28;20517;-79
2022/05/03 20:24:52;;;;;;;8.13;5.77;;;;;;;;;;10468688;28;20911;-79
2022/05/03 20:29:54;;;;;;;9.73;5.15;;;;;;;;;;10457462;28;20493;-79
2022/05/03 20:34:57;;;;;;;10.32;5.35;;;;;;;;;;10465476;28;20416;-79
2022/05/03 20:39:59;;;;;;;7.78;4.72;;;;;;;;;;10459298;28;20923;-78
2022/05/03 20:45:01;;;;;;;4.88;4.38;;;;;;;;;;10451830;28;20423;-79
2022/05/03 20:50:05;;;;;;;6.40;4.50;;;;;;;;;;10448159;28;20453;-80
2022/05/03 20:55:08;;;;;;;8.25;5.93;;;;;;;;;;10447927;28;20910;-80
2022/05/03 21:00:11;;;;;;;5.93;4.80;;;;;;;;;;10444652;28;20806;-80
2022/05/03 21:05:14;;;;;;;8.07;6.00;;;;;;;;;;10446264;28;20430;-80
2022/05/03 21:10:16;;;;;;;6.78;5.72;;;;;;;;;;10446360;28;20494;-80
2022/05/03 21:15:18;;;;;;;6.97;5.60;;;;;;;;;;10445456;28;20973;-81
2022/05/03 21:20:21;;;;;;;8.00;5.20;;;;;;;;;;10444540;28;21006;-79
2022/05/03 21:25:23;;;;;;;6.03;5.40;;;;;;;;;;10437531;28;20446;-78
2022/05/03 21:30:25;;;;;;;8.13;5.70;;;;;;;;;;10440003;28;20419;-79
2022/05/03 21:35:28;;;;;;;7.10;6.17;;;;;;;;;;10440209;28;20437;-78
2022/05/03 21:40:30;;;;;;;7.97;6.05;;;;;;;;;;10440776;28;20494;-79
2022/05/03 21:45:31;;;;;;;7.07;5.77;;;;;;;;;;10439835;28;20443;-80
2022/05/03 21:50:35;;;;;;;6.78;5.93;;;;;;;;;;10439579;28;20416;-79
2022/05/03 21:55:36;;;;;;;9.00;7.22;;;;;;;;;;10454172;28;20407;-79
2022/05/03 22:00:41;;;;;;;8.37;6.67;;;;;;;;;;10452651;28;20400;-79
2022/05/03 22:05:44;;;;;;;10.77;6.90;;;;;;;;;;10452171;28;20414;-80
2022/05/03 22:10:46;;;;;;;9.10;7.07;;;;;;;;;;10454222;28;20602;-80
2022/05/03 22:15:48;;;;;;;7.43;6.70;;;;;;;;;;10452714;28;20520;-80
2022/05/03 22:20:52;;;;;;;9.33;6.80;;;;;;;;;;10457388;28;20408;-79
2022/05/03 22:25:53;;;;;;;9.02;7.10;;;;;;;;;;10458342;28;20973;-80
2022/05/03 22:30:55;;;;;;;8.13;7.33;;;;;;;;;;10457645;28;20485;-80
2022/05/03 22:35:58;;;;;;;9.45;7.65;;;;;;;;;;10456977;28;20769;-80
2022/05/03 22:41:00;;;;;;;9.80;7.70;;;;;;;;;;10458081;28;20489;-80
2022/05/03 22:46:02;;;;;;;8.68;7.60;;;;;;;;;;10462831;28;20422;-79
2022/05/03 22:51:06;;;;;;;9.70;7.43;;;;;;;;;;10464489;28;20390;-80
2022/05/03 22:56:07;;;;;;;8.93;7.73;;;;;;;;;;10464610;28;20886;-80
2022/05/03 23:01:09;;;;;;;8.27;7.40;;;;;;;;;;10464965;28;20408;-80
2022/05/03 23:06:12;;;;;;;10.30;8.80;;;;;;;;;;10464578;28;20428;-79
2022/05/03 23:11:14;;;;;;;8.88;8.07;;;;;;;;;;10464449;28;20400;-80
2022/05/03 23:16:16;;;;;;;9.85;8.85;;;;;;;;;;10462000;28;20433;-80
2022/05/03 23:21:19;;;;;;;9.80;8.80;;;;;;;;;;10462795;28;20398;-80
2022/05/03 23:26:21;;;;;;;10.32;9.20;;;;;;;;;;10463527;28;20746;-79
2022/05/03 23:31:23;;;;;;;10.57;9.47;;;;;;;;;;10463483;28;20431;-79
2022/05/03 23:36:26;;;;;;;11.60;9.18;;;;;;;;;;10463261;28;20836;-79
2022/05/03 23:41:27;;;;;;;9.88;8.88;;;;;;;;;;10462071;28;20876;-79
2022/05/03 23:46:29;;;;;;;10.35;9.20;;;;;;;;;;10462136;28;20426;-78
2022/05/03 23:51:32;;;;;;;10.00;9.05;;;;;;;;;;10461365;28;20412;-79
2022/05/03 23:56:34;;;;;;;10.55;9.38;;;;;;;;;;10461427;28;20786;-78
